Time;durP1;ratioP1;P1;durP2;ratioP2;P2;SDS_P1;SDS_P2;PMS_P1;PMS_P2;Temp;Humidity;BMP_temperature;BMP_pressure;BME280_temperature;BME280_humidity;BME280_pressure;Samples;Min_cycle;Max_cycle;Signal;HPM_P1;HPM_P2
2021/05/29 00:00:14;;;;;;;11.10;8.10;;;7.30;99.90;;;;;;5012138;28;20049;-74
2021/05/29 00:02:41;;;;;;;10.43;7.97;;;7.30;99.90;;;;;;5012587;28;20159;-76
2021/05/29 00:05:15;;;;;;;11.27;8.83;;;7.10;99.90;;;;;;5007525;28;20042;-74
2021/05/29 00:07:41;;;;;;;9.63;8.43;;;7.00;99.90;;;;;;4993892;28;20069;-76
2021/05/29 00:10:10;;;;;;;9.30;8.07;;;6.90;99.90;;;;;;5012047;28;20050;-75
2021/05/29 00:12:36;;;;;;;9.80;8.30;;;6.90;99.90;;;;;;5011364;28;20092;-75
2021/05/29 00:15:02;;;;;;;8.63;7.80;;;6.90;99.90;;;;;;5010314;28;20104;-75
2021/05/29 00:17:29;;;;;;;9.00;7.47;;;6.90;99.90;;;;;;5012083;28;20048;-76
2021/05/29 00:19:55;;;;;;;10.63;7.20;;;7.00;99.90;;;;;;5012227;28;20084;-75
2021/05/29 00:22:21;;;;;;;8.73;7.83;;;7.10;99.90;;;;;;5012227;28;20054;-75
2021/05/29 00:24:47;;;;;;;8.87;7.10;;;7.20;99.90;;;;;;5012518;28;20050;-76
2021/05/29 00:27:14;;;;;;;7.20;6.30;;;7.20;99.90;;;;;;5011467;28;20494;-75
2021/05/29 00:29:40;;;;;;;6.70;6.00;;;7.30;99.90;;;;;;4999957;28;20042;-75
2021/05/29 00:32:07;;;;;;;7.47;6.63;;;7.20;99.90;;;;;;5007733;28;20050;-75
2021/05/29 00:34:33;;;;;;;7.30;6.57;;;7.20;99.90;;;;;;5012456;28;20421;-75
2021/05/29 00:36:59;;;;;;;11.20;6.77;;;7.10;99.90;;;;;;5011584;28;20046;-75
2021/05/29 00:39:25;;;;;;;8.30;6.53;;;7.00;99.90;;;;;;5010947;28;20054;-74
2021/05/29 00:41:51;;;;;;;7.63;6.30;;;7.00;99.90;;;;;;5008358;28;20053;-75
2021/05/29 00:44:18;;;;;;;9.43;6.80;;;7.00;99.90;;;;;;5012475;28;20394;-75
2021/05/29 00:46:44;;;;;;;10.17;8.37;;;6.90;99.90;;;;;;5011820;28;20453;-75
2021/05/29 00:49:15;;;;;;;7.67;6.80;;;6.90;99.90;;;;;;5012277;28;20057;-75
2021/05/29 00:51:41;;;;;;;6.90;6.20;;;6.90;99.90;;;;;;5018560;28;20548;-75
2021/05/29 00:54:10;;;;;;;10.00;6.57;;;6.90;99.90;;;;;;5018835;28;20394;-75
2021/05/29 00:56:36;;;;;;;7.83;7.07;;;6.90;99.90;;;;;;5012053;28;20054;-75
2021/05/29 00:59:03;;;;;;;7.67;6.83;;;6.80;99.90;;;;;;5012219;28;20046;-74
2021/05/29 01:01:30;;;;;;;8.70;6.23;;;6.70;99.90;;;;;;5011781;28;20054;-74
2021/05/29 01:03:56;;;;;;;10.67;6.57;;;6.60;99.90;;;;;;5012406;28;20053;-74
2021/05/29 01:06:22;;;;;;;10.57;6.73;;;6.50;99.90;;;;;;5013434;28;20045;-76
2021/05/29 01:08:48;;;;;;;7.67;6.47;;;6.50;99.90;;;;;;5001261;28;20046;-75
2021/05/29 01:11:15;;;;;;;6.73;5.93;;;6.40;99.90;;;;;;5009456;28;20052;-74
2021/05/29 01:13:41;;;;;;;8.27;7.30;;;6.40;99.90;;;;;;5009389;28;20046;-74
2021/05/29 01:16:12;;;;;;;7.57;6.43;;;6.30;99.90;;;;;;5011765;28;20045;-74
2021/05/29 01:18:39;;;;;;;8.18;6.70;;;6.20;99.90;;;;;;5008087;28;20081;-75
2021/05/29 01:21:05;;;;;;;9.70;6.73;;;6.30;99.90;;;;;;5003396;28;20042;-75
2021/05/29 01:23:32;;;;;;;11.57;6.93;;;6.30;99.90;;;;;;5013198;28;20050;-75
2021/05/29 01:25:58;;;;;;;8.90;6.97;;;6.40;99.90;;;;;;5009582;28;20068;-74
2021/05/29 01:28:27;;;;;;;10.20;6.17;;;6.50;99.90;;;;;;4995779;28;20046;-77
2021/05/29 01:30:58;;;;;;;10.80;7.50;;;6.50;99.90;;;;;;5001019;28;20413;-74
2021/05/29 01:33:26;;;;;;;7.40;5.93;;;6.50;99.90;;;;;;5015362;28;20417;-74
2021/05/29 01:35:57;;;;;;;8.97;6.30;;;6.40;99.90;;;;;;5009552;28;20042;-75
2021/05/29 01:38:24;;;;;;;7.65;6.00;;;6.40;99.90;;;;;;5015105;28;20104;-75
2021/05/29 01:40:51;;;;;;;6.70;6.07;;;6.30;99.90;;;;;;5015184;28;20540;-76
2021/05/29 01:43:18;;;;;;;6.80;6.10;;;6.20;99.90;;;;;;5015127;28;20057;-75
2021/05/29 01:45:45;;;;;;;7.40;6.40;;;6.20;99.90;;;;;;5014463;28;20049;-75
2021/05/29 01:48:12;;;;;;;8.87;7.13;;;6.20;99.90;;;;;;5015151;28;20050;-75
2021/05/29 01:50:46;;;;;;;7.83;5.60;;;6.10;99.90;;;;;;5013396;28;20052;-75
2021/05/29 01:53:14;;;;;;;8.17;6.73;;;6.10;99.90;;;;;;4997469;28;20089;-75
2021/05/29 01:55:41;;;;;;;7.70;6.77;;;6.20;99.90;;;;;;4995057;28;20077;-75
2021/05/29 01:58:08;;;;;;;9.00;6.40;;;6.20;99.90;;;;;;4995114;28;20652;-75
2021/05/29 02:00:35;;;;;;;10.17;6.33;;;6.20;99.90;;;;;;5004275;28;20045;-75
2021/05/29 02:03:01;;;;;;;8.03;6.70;;;6.10;99.90;;;;;;5014528;28;20060;-75
2021/05/29 02:05:30;;;;;;;9.60;6.13;;;6.00;99.90;;;;;;5013778;28;20046;-75
2021/05/29 02:07:59;;;;;;;8.43;6.33;;;6.00;99.90;;;;;;5014745;28;20049;-74
2021/05/29 02:10:28;;;;;;;8.47;6.30;;;6.00;99.90;;;;;;4995868;28;20050;-74
2021/05/29 02:12:56;;;;;;;10.73;7.30;;;6.10;99.90;;;;;;5014242;28;20049;-75
2021/05/29 02:15:25;;;;;;;7.53;6.27;;;6.10;99.90;;;;;;5014425;28;20049;-75
2021/05/29 02:17:54;;;;;;;10.23;6.50;;;6.10;99.90;;;;;;5014590;28;20045;-76
2021/05/29 02:20:29;;;;;;;9.13;6.93;;;6.10;99.90;;;;;;5014119;28;20482;-74
2021/05/29 02:22:55;;;;;;;8.73;6.37;;;6.20;99.90;;;;;;5014584;28;20057;-75
2021/05/29 02:25:21;;;;;;;7.70;5.70;;;6.20;99.90;;;;;;5015883;28;20059;-74
2021/05/29 02:27:47;;;;;;;9.30;6.43;;;6.10;99.90;;;;;;5013592;28;20494;-74
2021/05/29 02:30:14;;;;;;;6.63;5.93;;;6.00;99.90;;;;;;5013989;28;20050;-75
2021/05/29 02:32:41;;;;;;;7.37;6.00;;;6.00;99.90;;;;;;5014134;28;20053;-75
2021/05/29 02:35:08;;;;;;;8.60;6.03;;;6.00;99.90;;;;;;5013911;28;20052;-74
2021/05/29 02:37:34;;;;;;;9.33;6.07;;;5.90;99.90;;;;;;5013703;28;20048;-75
2021/05/29 02:40:00;;;;;;;9.33;5.90;;;5.90;99.90;;;;;;5014139;28;20042;-74
2021/05/29 02:42:26;;;;;;;8.60;6.07;;;6.00;99.90;;;;;;5013793;28;20049;-75
2021/05/29 02:44:52;;;;;;;8.63;5.83;;;5.90;99.90;;;;;;5014570;28;20177;-75
2021/05/29 02:47:19;;;;;;;12.13;7.77;;;5.80;99.90;;;;;;5014098;28;20482;-74
2021/05/29 02:49:45;;;;;;;9.27;6.37;;;5.80;99.90;;;;;;5010511;28;20046;-74
2021/05/29 02:52:12;;;;;;;7.40;5.50;;;5.80;99.90;;;;;;5011797;28;20537;-74
2021/05/29 02:54:41;;;;;;;10.33;6.27;;;5.70;99.90;;;;;;5014709;28;20056;-74
2021/05/29 02:57:09;;;;;;;11.07;6.47;;;5.80;99.90;;;;;;5014143;28;20608;-75
2021/05/29 02:59:35;;;;;;;8.97;6.00;;;5.80;99.90;;;;;;5014559;28;20042;-75
2021/05/29 03:02:01;;;;;;;9.27;5.90;;;5.70;99.90;;;;;;5013888;28;20425;-74
2021/05/29 03:04:27;;;;;;;8.37;6.73;;;5.80;99.90;;;;;;5012898;28;20049;-74
2021/05/29 03:06:54;;;;;;;9.53;6.67;;;5.90;99.90;;;;;;5014545;28;20375;-71
2021/05/29 03:09:21;;;;;;;8.73;6.00;;;6.00;99.90;;;;;;5014494;28;20042;-71
2021/05/29 03:11:47;;;;;;;7.93;6.83;;;6.00;99.90;;;;;;5013195;28;20053;-70
2021/05/29 03:14:13;;;;;;;8.93;6.47;;;6.00;99.90;;;;;;5012462;28;20045;-72
2021/05/29 03:16:39;;;;;;;8.60;6.47;;;6.10;99.90;;;;;;5013025;28;20093;-71
2021/05/29 03:19:05;;;;;;;8.73;6.23;;;6.20;99.90;;;;;;5000751;28;20050;-72
2021/05/29 03:21:31;;;;;;;7.17;6.07;;;6.20;99.90;;;;;;4993500;28;20053;-72
2021/05/29 03:23:58;;;;;;;9.60;6.03;;;6.20;99.90;;;;;;5002202;28;20050;-73
2021/05/29 03:26:25;;;;;;;8.63;6.40;;;6.20;99.90;;;;;;5012641;28;20045;-72
2021/05/29 03:28:55;;;;;;;108.27;55.03;;;6.30;99.90;;;;;;5012243;28;20046;-71
2021/05/29 03:31:22;;;;;;;67.60;36.77;;;6.40;99.90;;;;;;5012414;28;20081;-69
2021/05/29 03:33:48;;;;;;;20.03;11.27;;;6.50;99.90;;;;;;5006322;28;20050;-71
2021/05/29 03:36:14;;;;;;;17.33;11.97;;;6.60;99.90;;;;;;5012889;28;20053;-73
2021/05/29 03:38:41;;;;;;;50.37;28.13;;;6.60;99.90;;;;;;5011586;28;20050;-74
2021/05/29 03:41:09;;;;;;;40.93;23.47;;;6.60;99.90;;;;;;5005397;28;20046;-71
2021/05/29 03:43:35;;;;;;;30.03;15.97;;;6.70;99.90;;;;;;5014036;28;20494;-72
2021/05/29 03:46:01;;;;;;;68.80;35.27;;;6.70;99.90;;;;;;5012057;28;20050;-71
2021/05/29 03:48:27;;;;;;;34.07;20.03;;;6.80;99.90;;;;;;5012530;28;20072;-71
2021/05/29 03:50:53;;;;;;;31.13;17.03;;;6.90;99.90;;;;;;5012362;28;20053;-71
2021/05/29 03:53:19;;;;;;;47.73;27.20;;;7.00;99.90;;;;;;5012685;28;20049;-71
2021/05/29 03:55:45;;;;;;;35.40;20.03;;;7.00;99.90;;;;;;5012662;28;20046;-71
2021/05/29 03:58:14;;;;;;;24.23;13.17;;;7.10;99.90;;;;;;5012498;28;20494;-71
2021/05/29 04:00:40;;;;;;;35.30;18.83;;;7.20;99.90;;;;;;5012543;28;20381;-71
2021/05/29 04:03:06;;;;;;;51.63;26.77;;;7.30;99.90;;;;;;5012431;28;20060;-71
2021/05/29 04:05:33;;;;;;;36.40;20.73;;;7.50;99.90;;;;;;5012655;28;20046;-70
2021/05/29 04:07:59;;;;;;;33.27;16.23;;;7.70;99.90;;;;;;5012615;28;20050;-71
2021/05/29 04:10:27;;;;;;;36.00;18.90;;;7.80;99.90;;;;;;5012620;28;20451;-71
2021/05/29 04:12:54;;;;;;;20.23;12.77;;;7.90;99.90;;;;;;5012603;28;20401;-70
2021/05/29 04:15:22;;;;;;;20.92;12.32;;;8.00;99.90;;;;;;5012542;28;20050;-70
2021/05/29 04:17:48;;;;;;;20.73;11.65;;;8.10;99.90;;;;;;5008833;28;20050;-71
2021/05/29 04:20:17;;;;;;;30.98;17.88;;;8.30;99.90;;;;;;4992934;28;20094;-71
2021/05/29 04:22:43;;;;;;;19.58;12.25;;;8.40;99.90;;;;;;4992774;28;20050;-71
2021/05/29 04:25:13;;;;;;;14.07;7.37;;;8.50;99.90;;;;;;5002529;28;20057;-71
2021/05/29 04:27:39;;;;;;;24.77;14.48;;;8.50;99.90;;;;;;5011959;28;20096;-71
2021/05/29 04:30:09;;;;;;;23.75;11.65;;;8.60;99.90;;;;;;5012260;28;20046;-70
2021/05/29 04:32:36;;;;;;;25.17;13.68;;;8.70;99.90;;;;;;5011982;28;20046;-70
2021/05/29 04:35:02;;;;;;;20.83;11.05;;;8.80;99.90;;;;;;5012109;28;20104;-71
2021/05/29 04:37:28;;;;;;;23.60;12.25;;;8.80;99.90;;;;;;5011581;28;20504;-71
2021/05/29 04:39:54;;;;;;;19.70;10.63;;;8.90;99.90;;;;;;5012114;28;20042;-71
2021/05/29 04:42:20;;;;;;;17.95;10.65;;;9.00;99.90;;;;;;5012253;28;20050;-71
2021/05/29 04:44:49;;;;;;;18.85;11.52;;;9.00;99.90;;;;;;5011927;28;20418;-71
2021/05/29 04:47:15;;;;;;;42.47;21.58;;;9.10;99.90;;;;;;5011696;28;20054;-71
2021/05/29 04:49:42;;;;;;;16.38;9.82;;;9.20;99.90;;;;;;5012125;28;20042;-71
2021/05/29 04:52:09;;;;;;;22.23;10.68;;;9.20;99.90;;;;;;5012126;28;20042;-70
2021/05/29 04:54:37;;;;;;;14.30;8.73;;;9.20;99.90;;;;;;5012031;28;20049;-71
2021/05/29 04:57:03;;;;;;;14.82;8.25;;;9.20;99.90;;;;;;5013080;28;20050;-72
2021/05/29 04:59:30;;;;;;;18.08;9.20;;;9.30;99.90;;;;;;5016454;28;20498;-71
2021/05/29 05:01:57;;;;;;;11.88;7.57;;;9.40;99.90;;;;;;5015776;28;20064;-72
2021/05/29 05:04:25;;;;;;;15.65;8.27;;;9.30;99.90;;;;;;5016011;28;20184;-71
2021/05/29 05:06:52;;;;;;;15.05;9.55;;;9.30;99.90;;;;;;5015457;28;20116;-70
2021/05/29 05:09:18;;;;;;;24.90;13.95;;;9.20;99.90;;;;;;5015211;28;20405;-70
2021/05/29 05:11:44;;;;;;;12.35;7.93;;;9.30;99.90;;;;;;5015586;28;20050;-70
2021/05/29 05:14:10;;;;;;;16.17;9.38;;;9.30;99.90;;;;;;5015315;28;20120;-71
2021/05/29 05:16:36;;;;;;;14.52;9.93;;;9.40;99.90;;;;;;4996370;28;20051;-71
2021/05/29 05:19:02;;;;;;;15.50;9.45;;;9.40;99.90;;;;;;5000638;28;20046;-70
2021/05/29 05:21:29;;;;;;;14.02;8.63;;;9.40;99.90;;;;;;5015475;28;20049;-70
2021/05/29 05:23:56;;;;;;;11.02;7.72;;;9.30;99.90;;;;;;5015389;28;20050;-71
2021/05/29 05:26:23;;;;;;;15.05;8.00;;;9.40;99.90;;;;;;5015119;28;20049;-71
2021/05/29 05:28:49;;;;;;;12.95;6.90;;;9.30;99.90;;;;;;5015184;28;20046;-71
2021/05/29 05:31:15;;;;;;;17.95;9.77;;;9.20;99.90;;;;;;5015043;28;20077;-70
2021/05/29 05:33:42;;;;;;;17.73;9.57;;;9.30;99.90;;;;;;5015347;28;20057;-70
2021/05/29 05:36:09;;;;;;;17.02;8.98;;;9.40;99.90;;;;;;5014851;28;20050;-71
2021/05/29 05:38:35;;;;;;;16.85;8.68;;;9.30;99.90;;;;;;5015002;28;20053;-71
2021/05/29 05:41:02;;;;;;;11.82;7.05;;;9.20;99.90;;;;;;5014791;28;20053;-70
2021/05/29 05:43:28;;;;;;;10.52;7.85;;;9.30;99.90;;;;;;5015068;28;20050;-71
2021/05/29 05:45:55;;;;;;;12.13;6.80;;;9.30;99.90;;;;;;5014644;28;20057;-70
2021/05/29 05:48:21;;;;;;;14.02;8.68;;;9.40;99.90;;;;;;5015133;28;20061;-72
2021/05/29 05:50:54;;;;;;;14.45;8.55;;;9.40;99.90;;;;;;5015037;28;20050;-72
2021/05/29 05:53:21;;;;;;;14.38;7.63;;;9.50;99.90;;;;;;5014881;28;20050;-71
2021/05/29 05:55:51;;;;;;;10.82;6.97;;;9.60;99.90;;;;;;5014464;28;20490;-72
2021/05/29 05:58:18;;;;;;;9.25;6.13;;;9.70;99.90;;;;;;5014572;28;20498;-71
2021/05/29 06:00:44;;;;;;;10.20;6.97;;;9.80;99.90;;;;;;5015088;28;20042;-71
2021/05/29 06:03:10;;;;;;;11.75;7.00;;;9.90;99.90;;;;;;5001232;28;20053;-71
2021/05/29 06:05:37;;;;;;;14.05;7.30;;;9.90;99.90;;;;;;4995694;28;20054;-71
2021/05/29 06:08:03;;;;;;;10.25;7.05;;;9.80;99.90;;;;;;4994208;28;20046;-71
2021/05/29 06:10:30;;;;;;;10.98;6.75;;;9.80;99.90;;;;;;5007143;28;20050;-71
2021/05/29 06:12:56;;;;;;;8.73;6.65;;;10.00;99.90;;;;;;5014379;28;20390;-71
2021/05/29 06:18:19;;;;;;;11.50;6.03;;;10.30;99.90;;;;;;5023987;28;20056;-71
2021/05/29 06:20:49;;;;;;;12.23;6.82;;;10.50;99.90;;;;;;5014050;28;20427;-71
2021/05/29 06:23:15;;;;;;;8.98;7.15;;;10.50;99.90;;;;;;5014170;28;20050;-72
2021/05/29 06:25:41;;;;;;;13.95;7.93;;;10.50;99.90;;;;;;5013890;28;20108;-71
2021/05/29 06:28:08;;;;;;;13.00;9.13;;;10.60;99.90;;;;;;5014015;28;20057;-71
2021/05/29 06:30:35;;;;;;;11.65;6.90;;;10.50;99.90;;;;;;5014171;28;20042;-72
2021/05/29 06:33:02;;;;;;;11.63;7.70;;;10.50;99.90;;;;;;5014223;28;20108;-72
2021/05/29 06:35:28;;;;;;;17.27;9.07;;;10.60;99.90;;;;;;5013427;28;20053;-72
2021/05/29 06:37:55;;;;;;;11.55;8.13;;;10.70;99.90;;;;;;5014204;28;20050;-72
2021/05/29 06:40:21;;;;;;;12.52;7.40;;;10.60;99.90;;;;;;5013996;28;20053;-70
2021/05/29 06:42:47;;;;;;;10.57;6.60;;;10.80;99.90;;;;;;5013695;28;20054;-72
2021/05/29 06:45:14;;;;;;;9.93;6.70;;;10.80;99.90;;;;;;5013936;28;20057;-71
2021/05/29 06:47:41;;;;;;;10.25;6.00;;;10.80;99.90;;;;;;5013250;28;20092;-71
2021/05/29 06:50:09;;;;;;;13.23;6.22;;;10.90;99.90;;;;;;5013667;28;20053;-71
2021/05/29 06:52:38;;;;;;;9.85;6.40;;;11.00;99.90;;;;;;5013731;28;20053;-72
2021/05/29 06:58:38;;;;;;;12.00;6.78;;;11.00;99.90;;;;;;5013764;28;20090;-71
2021/05/29 07:00:35;;;;;;;9.57;6.57;;;10.90;99.90;;;;;;4995281;28;20053;-71
2021/05/29 07:03:03;;;;;;;12.57;6.47;;;11.00;99.90;;;;;;4993934;28;20051;-72
2021/05/29 07:05:29;;;;;;;9.82;6.57;;;11.10;99.90;;;;;;4993709;28;20053;-70
2021/05/29 07:07:55;;;;;;;11.02;6.07;;;11.30;99.90;;;;;;4993795;28;20454;-71
2021/05/29 07:10:21;;;;;;;9.95;6.05;;;11.50;99.90;;;;;;5007311;28;20053;-71
2021/05/29 07:12:47;;;;;;;14.45;6.35;;;11.70;99.90;;;;;;5013454;28;20046;-71
2021/05/29 07:15:15;;;;;;;14.40;6.43;;;11.80;99.90;;;;;;5013271;28;20106;-70
2021/05/29 07:17:43;;;;;;;11.70;6.07;;;12.00;99.90;;;;;;5013066;28;20049;-70
2021/05/29 07:20:12;;;;;;;9.68;6.13;;;12.00;99.90;;;;;;5013099;28;20259;-71
2021/05/29 07:22:38;;;;;;;11.35;5.95;;;12.10;99.90;;;;;;5013325;28;20056;-71
2021/05/29 07:25:06;;;;;;;10.60;6.15;;;12.30;99.90;;;;;;5012960;28;20100;-71
2021/05/29 07:27:32;;;;;;;12.77;6.32;;;12.60;99.90;;;;;;5012592;28;20046;-71
2021/05/29 07:29:59;;;;;;;11.63;6.40;;;13.10;99.90;;;;;;5013112;28;20041;-71
2021/05/29 07:32:25;;;;;;;12.05;7.47;;;13.30;99.90;;;;;;5013176;28;20046;-71
2021/05/29 07:34:52;;;;;;;11.00;6.80;;;13.20;99.90;;;;;;5013861;28;20061;-72
2021/05/29 07:37:19;;;;;;;9.73;6.80;;;13.30;99.90;;;;;;5012780;28;20046;-71
2021/05/29 07:39:45;;;;;;;13.32;6.97;;;13.40;99.90;;;;;;5001895;28;20604;-71
2021/05/29 07:42:11;;;;;;;10.32;5.95;;;13.40;99.90;;;;;;4992924;28;20132;-71
2021/05/29 07:44:38;;;;;;;12.95;5.45;;;13.50;99.90;;;;;;4993277;28;20057;-72
2021/05/29 07:47:04;;;;;;;9.55;6.60;;;13.60;99.90;;;;;;4992953;28;20458;-71
2021/05/29 07:49:30;;;;;;;10.13;6.78;;;13.80;99.90;;;;;;4993318;28;20050;-71
2021/05/29 07:51:57;;;;;;;9.48;5.85;;;14.40;99.90;;;;;;4993176;28;20073;-72
2021/05/29 07:54:24;;;;;;;7.45;4.65;;;14.90;99.90;;;;;;4993108;28;20113;-72
2021/05/29 07:56:51;;;;;;;9.30;4.47;;;15.70;99.90;;;;;;4992954;28;20493;-72
2021/05/29 07:59:18;;;;;;;7.15;5.05;;;16.80;99.90;;;;;;4993045;28;20477;-72
2021/05/29 08:01:44;;;;;;;8.88;4.35;;;17.20;99.90;;;;;;4993037;28;20495;-72
2021/05/29 08:04:12;;;;;;;8.85;4.97;;;18.10;99.90;;;;;;4992918;28;20053;-72
2021/05/29 08:06:39;;;;;;;8.05;4.47;;;18.40;99.90;;;;;;4992517;28;20057;-71
2021/05/29 08:09:07;;;;;;;6.18;5.22;;;18.40;99.90;;;;;;4997967;28;20042;-72
2021/05/29 08:11:34;;;;;;;9.25;4.40;;;18.30;99.90;;;;;;5012340;28;20541;-71
2021/05/29 08:14:00;;;;;;;9.82;6.50;;;18.40;99.80;;;;;;5012799;28;20053;-71
2021/05/29 08:16:26;;;;;;;9.65;5.22;;;18.40;98.60;;;;;;5012235;28;20046;-72
2021/05/29 08:18:53;;;;;;;9.57;5.63;;;19.10;98.90;;;;;;5012466;28;20054;-72
2021/05/29 08:21:19;;;;;;;7.40;4.60;;;18.90;96.30;;;;;;5012242;28;20049;-71
2021/05/29 08:23:46;;;;;;;9.43;6.15;;;18.80;97.60;;;;;;5012492;28;20422;-75
2021/05/29 08:26:12;;;;;;;7.78;5.10;;;18.70;97.00;;;;;;5012078;28;20050;-72
2021/05/29 08:28:39;;;;;;;8.65;4.80;;;18.10;98.40;;;;;;5012236;28;20045;-71
2021/05/29 08:31:06;;;;;;;6.55;5.05;;;18.00;98.20;;;;;;4994103;28;20050;-72
2021/05/29 08:33:32;;;;;;;7.97;4.70;;;18.00;98.40;;;;;;4996355;28;20050;-71
2021/05/29 08:35:58;;;;;;;11.23;5.75;;;18.60;98.50;;;;;;4996467;28;20057;-71
2021/05/29 08:38:24;;;;;;;7.72;4.82;;;18.60;97.70;;;;;;4996090;28;20401;-71
2021/05/29 08:40:51;;;;;;;5.90;4.55;;;19.00;97.10;;;;;;4996555;28;20494;-72
2021/05/29 08:43:17;;;;;;;7.20;4.75;;;19.60;97.40;;;;;;4996680;28;20053;-72
2021/05/29 08:45:44;;;;;;;5.82;4.10;;;20.60;93.60;;;;;;4996329;28;20054;-72
2021/05/29 08:48:11;;;;;;;4.78;4.22;;;21.50;91.20;;;;;;5002221;28;20144;-72
2021/05/29 08:51:12;;;;;;;8.05;4.57;;;21.00;89.70;;;;;;4996721;28;20054;-71
2021/05/29 08:53:25;;;;;;;7.60;4.05;;;21.00;88.50;;;;;;5000452;28;20212;-72
2021/05/29 08:55:51;;;;;;;6.68;3.90;;;22.00;86.60;;;;;;4996234;28;20055;-71
2021/05/29 08:58:17;;;;;;;5.60;4.45;;;21.60;86.20;;;;;;4997169;28;20454;-71
2021/05/29 09:00:44;;;;;;;5.13;4.28;;;21.60;84.70;;;;;;4997281;28;20057;-71
2021/05/29 09:03:11;;;;;;;9.35;4.10;;;21.60;83.00;;;;;;4997213;28;20069;-71
2021/05/29 09:05:42;;;;;;;5.65;4.20;;;21.90;81.50;;;;;;4995727;28;20486;-71
2021/05/29 09:08:10;;;;;;;7.30;4.00;;;21.40;83.70;;;;;;4996476;28;20085;-71
2021/05/29 09:10:39;;;;;;;4.43;3.67;;;21.60;81.70;;;;;;4995918;28;20100;-71
2021/05/29 09:13:09;;;;;;;5.47;4.30;;;22.30;80.00;;;;;;4996186;28;20074;-71
2021/05/29 09:16:01;;;;;;;5.70;3.70;;;22.30;79.60;;;;;;4995516;28;20349;-71
2021/05/29 09:18:28;;;;;;;;;;;22.50;79.50;;;;;;4996565;28;20054;-71
2021/05/29 09:21:14;;;;;;;4.43;4.03;;;22.50;77.80;;;;;;4995434;28;20370;-70
2021/05/29 09:23:44;;;;;;;5.07;3.80;;;22.70;76.80;;;;;;4997354;28;20047;-71
2021/05/29 09:26:10;;;;;;;7.75;4.35;;;22.50;77.50;;;;;;4995619;28;20060;-71
2021/05/29 09:28:37;;;;;;;4.60;4.20;;;21.90;78.70;;;;;;4995703;28;20053;-71
2021/05/29 09:31:04;;;;;;;6.30;4.00;;;20.90;78.60;;;;;;4995842;28;20414;-72
2021/05/29 09:33:35;;;;;;;5.43;3.95;;;20.10;82.40;;;;;;4996103;28;20050;-71
2021/05/29 09:36:04;;;;;;;6.55;4.05;;;19.60;83.30;;;;;;4995833;28;20100;-71
2021/05/29 09:38:33;;;;;;;4.80;3.60;;;19.50;85.90;;;;;;4995144;28;20046;-71
2021/05/29 09:40:59;;;;;;;7.40;3.78;;;19.60;87.30;;;;;;4995641;28;20050;-71
2021/05/29 09:43:25;;;;;;;5.22;4.30;;;19.30;87.00;;;;;;4993992;28;20487;-70
2021/05/29 09:45:59;;;;;;;10.77;5.20;;;18.90;90.10;;;;;;4995108;28;20046;-72
2021/05/29 09:48:27;;;;;;;4.45;4.00;;;18.80;90.50;;;;;;4995317;28;20050;-70
2021/05/29 09:51:02;;;;;;;6.72;3.92;;;18.60;90.20;;;;;;4995375;28;20057;-71
2021/05/29 09:53:30;;;;;;;8.93;5.25;;;18.10;91.70;;;;;;4995501;28;20054;-71
2021/05/29 09:55:56;;;;;;;26.92;16.15;;;17.90;92.30;;;;;;4994978;28;20054;-71
2021/05/29 09:58:49;;;;;;;19.42;11.95;;;17.70;93.00;;;;;;4995285;28;20047;-71
2021/05/29 10:01:50;;;;;;;9.98;5.43;;;17.80;94.40;;;;;;4995221;28;20050;-71
2021/05/29 10:04:35;;;;;;;4.35;3.90;;;17.70;95.40;;;;;;4954087;29;20487;-71
2021/05/29 10:07:03;;;;;;;7.50;4.43;;;17.80;94.00;;;;;;4953831;29;20142;-71
2021/05/29 10:09:30;;;;;;;8.93;6.28;;;18.70;93.90;;;;;;4966635;28;20050;-71
2021/05/29 10:11:57;;;;;;;11.93;8.27;;;19.20;92.20;;;;;;4974052;28;20051;-71
2021/05/29 10:14:23;;;;;;;7.85;6.10;;;19.90;91.30;;;;;;4969459;28;20203;-71
2021/05/29 10:16:50;;;;;;;5.97;4.18;;;20.20;90.20;;;;;;4953410;29;20047;-71
2021/05/29 10:19:20;;;;;;;5.70;3.28;;;21.00;90.00;;;;;;4953647;29;20054;-72
2021/05/29 10:21:47;;;;;;;9.43;5.10;;;22.80;80.00;;;;;;4953704;29;20432;-72
2021/05/29 10:24:13;;;;;;;4.93;3.67;;;23.80;75.40;;;;;;4953554;29;20062;-72
2021/05/29 10:26:40;;;;;;;8.43;5.00;;;24.40;72.70;;;;;;4953330;29;20098;-72
2021/05/29 10:29:06;;;;;;;6.55;4.63;;;24.70;69.60;;;;;;4953634;29;20051;-71
2021/05/29 10:31:35;;;;;;;6.07;4.30;;;25.40;65.80;;;;;;4953521;29;20074;-71
2021/05/29 10:34:02;;;;;;;6.70;4.43;;;24.50;66.60;;;;;;4956231;28;20093;-71
2021/05/29 10:36:47;;;;;;;4.85;4.28;;;24.50;66.30;;;;;;4995547;28;20046;-72
2021/05/29 10:39:21;;;;;;;10.57;6.85;;;24.80;65.10;;;;;;4996034;28;20473;-72
2021/05/29 10:41:59;;;;;;;4.65;3.50;;;24.60;66.70;;;;;;4997263;28;20521;-70
2021/05/29 10:44:34;;;;;;;5.55;4.13;;;24.70;61.20;;;;;;4995779;28;20058;-71
2021/05/29 10:47:09;;;;;;;6.28;4.25;;;24.60;65.70;;;;;;4995221;28;20534;-72
2021/05/29 10:49:54;;;;;;;3.28;2.97;;;24.50;63.70;;;;;;4997291;28;20053;-71
2021/05/29 10:52:49;;;;;;;5.68;3.40;;;24.10;64.40;;;;;;5013968;28;20521;-71
2021/05/29 10:55:23;;;;;;;6.55;4.60;;;24.50;64.40;;;;;;5013411;28;20050;-72
2021/05/29 10:57:51;;;;;;;9.38;3.83;;;25.40;62.30;;;;;;5013698;28;20046;-71
2021/05/29 11:00:50;;;;;;;7.40;3.80;;;25.20;59.40;;;;;;5013611;28;20421;-71
2021/05/29 11:03:30;;;;;;;8.18;5.57;;;24.90;61.10;;;;;;5013600;28;20477;-71
2021/05/29 11:05:59;;;;;;;7.35;6.20;;;25.20;62.80;;;;;;5013260;28;20199;-71
2021/05/29 11:08:46;;;;;;;7.00;4.97;;;25.50;57.60;;;;;;5013397;28;20065;-70
2021/05/29 11:11:52;;;;;;;5.43;4.18;;;24.80;58.90;;;;;;5013607;28;20367;-71
2021/05/29 11:14:20;;;;;;;12.43;7.72;;;24.50;60.70;;;;;;5013719;28;20076;-71
2021/05/29 11:17:09;;;;;;;4.97;3.40;;;23.40;62.60;;;;;;5012984;28;20084;-71
2021/05/29 11:19:38;;;;;;;6.95;5.07;;;22.90;63.90;;;;;;5013514;28;20046;-71
2021/05/29 11:22:06;;;;;;;6.20;3.58;;;22.80;63.20;;;;;;5012975;28;20042;-71
2021/05/29 11:24:35;;;;;;;5.68;4.20;;;22.30;64.90;;;;;;5004057;28;20097;-71
2021/05/29 11:27:04;;;;;;;5.45;3.38;;;22.80;68.70;;;;;;4993119;28;20494;-71
2021/05/29 11:29:31;;;;;;;5.22;4.38;;;23.80;62.00;;;;;;4993980;28;20050;-71
2021/05/29 11:31:57;;;;;;;6.05;3.80;;;23.70;63.50;;;;;;4993736;28;20047;-71
2021/05/29 11:34:23;;;;;;;4.90;4.07;;;22.70;64.40;;;;;;4993589;28;20051;-72
2021/05/29 11:36:49;;;;;;;7.57;4.95;;;21.70;66.80;;;;;;4993224;28;20043;-71
2021/05/29 11:39:17;;;;;;;6.20;4.53;;;21.40;70.30;;;;;;4999781;28;20394;-71
2021/05/29 11:41:44;;;;;;;4.22;3.30;;;21.40;70.60;;;;;;5012902;28;20219;-71
2021/05/29 11:44:21;;;;;;;6.82;4.40;;;22.40;68.70;;;;;;5012898;28;20064;-71
2021/05/29 11:46:47;;;;;;;6.03;3.72;;;22.20;66.40;;;;;;5012597;28;20052;-70
2021/05/29 11:49:14;;;;;;;13.60;5.13;;;21.20;68.40;;;;;;5012557;28;20054;-71
2021/05/29 11:51:42;;;;;;;4.32;3.67;;;21.70;71.10;;;;;;5012711;28;20128;-71
2021/05/29 11:54:10;;;;;;;6.90;3.85;;;22.80;70.50;;;;;;5012620;28;20120;-71
2021/05/29 11:56:38;;;;;;;14.38;9.32;;;23.50;64.90;;;;;;5012832;28;20042;-71
2021/05/29 11:59:07;;;;;;;4.28;3.40;;;23.40;63.80;;;;;;5012823;28;20073;-71
2021/05/29 12:01:34;;;;;;;5.75;4.97;;;23.40;65.50;;;;;;5012570;28;20505;-71
2021/05/29 12:04:02;;;;;;;6.68;4.43;;;22.90;66.80;;;;;;5012471;28;20053;-72
2021/05/29 12:06:34;;;;;;;4.25;3.85;;;22.20;68.20;;;;;;5011645;28;20046;-72
2021/05/29 12:09:03;;;;;;;5.18;3.85;;;23.10;65.50;;;;;;5013818;28;20050;-72
2021/05/29 12:11:31;;;;;;;4.30;3.95;;;23.90;65.40;;;;;;5012680;28;20045;-71
2021/05/29 12:14:07;;;;;;;5.05;4.45;;;24.80;61.50;;;;;;5012649;28;20077;-71
2021/05/29 12:16:35;;;;;;;5.45;3.22;;;24.80;62.30;;;;;;5012214;28;20529;-71
2021/05/29 12:19:01;;;;;;;8.63;3.47;;;25.40;60.80;;;;;;5007463;28;20084;-71
2021/05/29 12:21:47;;;;;;;4.90;4.40;;;25.30;58.20;;;;;;4993058;28;20050;-70
2021/05/29 12:24:13;;;;;;;7.05;3.90;;;24.80;58.50;;;;;;4992829;28;20062;-71
2021/05/29 12:26:40;;;;;;;5.85;3.28;;;24.80;59.20;;;;;;4994313;28;20046;-70
2021/05/29 12:29:07;;;;;;;5.50;4.88;;;25.00;59.80;;;;;;4992466;28;20050;-71
2021/05/29 12:31:44;;;;;;;6.75;4.18;;;25.30;58.90;;;;;;4992629;28;20607;-71
2021/05/29 12:34:10;;;;;;;4.72;4.28;;;24.90;59.30;;;;;;4992699;28;20054;-70
2021/05/29 12:36:58;;;;;;;5.38;3.92;;;24.20;60.10;;;;;;4992883;28;20057;-71
2021/05/29 12:39:39;;;;;;;5.10;3.40;;;23.00;60.40;;;;;;4992603;28;20066;-71
2021/05/29 12:42:05;;;;;;;;;;;22.90;63.90;;;;;;4993184;28;20541;-71
2021/05/29 12:44:45;;;;;;;6.25;3.92;;;23.00;62.00;;;;;;4992605;28;19921;-70
2021/05/29 12:47:19;;;;;;;10.85;6.95;;;22.60;63.90;;;;;;4993165;28;20433;-72
2021/05/29 12:49:45;;;;;;;8.10;4.82;;;22.30;66.50;;;;;;4992644;28;20046;-71
2021/05/29 12:52:28;;;;;;;10.43;5.82;;;21.60;66.50;;;;;;4992646;28;20046;-71
2021/05/29 12:54:54;;;;;;;8.82;7.03;;;21.60;68.40;;;;;;4992478;28;20047;-71
2021/05/29 12:57:23;;;;;;;8.10;4.55;;;21.60;71.10;;;;;;4992059;28;20112;-75
2021/05/29 12:59:51;;;;;;;5.25;4.75;;;22.30;68.40;;;;;;4992550;28;20051;-71